createdAt,value
2018-12-15T00:00:47.568Z,38.42
2018-12-15T00:02:22.493Z,38.20
2018-12-15T00:03:57.521Z,39.95
2018-12-15T00:05:32.443Z,40.23
2018-12-15T00:07:07.411Z,41.28
2018-12-15T00:08:42.358Z,43.38
2018-12-15T00:10:17.376Z,47.53
2018-12-15T00:11:52.915Z,41.02
2018-12-15T00:13:27.855Z,41.35
2018-12-15T00:15:02.890Z,42.45
2018-12-15T00:16:37.953Z,45.28
2018-12-15T00:18:12.874Z,41.88
2018-12-15T00:19:47.835Z,43.52
2018-12-15T00:21:22.759Z,41.25
2018-12-15T00:22:58.535Z,41.50
2018-12-15T00:24:33.452Z,47.95
2018-12-15T00:26:08.461Z,42.25
2018-12-15T00:27:43.360Z,44.33
2018-12-15T00:29:18.330Z,38.08
2018-12-15T00:30:53.495Z,41.18
2018-12-15T00:32:28.476Z,42.43
2018-12-15T00:34:03.425Z,42.05
2018-12-15T00:35:38.370Z,40.52
2018-12-15T00:37:13.320Z,43.20
2018-12-15T00:38:48.287Z,41.63
2018-12-15T00:40:23.235Z,40.83
2018-12-15T00:41:58.189Z,41.65
2018-12-15T00:52:32.368Z,33.13
2018-12-15T00:54:07.429Z,33.53
2018-12-15T00:55:42.456Z,34.53
2018-12-15T00:57:17.475Z,31.02
2018-12-15T00:58:52.701Z,31.90
2018-12-15T01:00:28.340Z,33.15
2018-12-15T01:02:03.416Z,35.00
2018-12-15T01:03:38.450Z,36.13
2018-12-15T01:05:13.890Z,33.30
2018-12-15T01:06:48.949Z,33.38
2018-12-15T01:08:23.974Z,29.95
2018-12-15T01:09:59.040Z,33.42
2018-12-15T01:11:34.248Z,31.05
2018-12-15T01:13:09.273Z,29.95
2018-12-15T01:14:44.344Z,30.62
2018-12-15T01:16:19.448Z,32.03
2018-12-15T01:17:54.539Z,32.55
2018-12-15T01:19:29.537Z,31.20
2018-12-15T01:21:04.560Z,34.85
2018-12-15T01:22:39.587Z,34.90
2018-12-15T01:24:14.705Z,32.70
2018-12-15T01:25:49.789Z,31.75
2018-12-15T01:27:24.826Z,32.50
2018-12-15T01:28:59.881Z,30.10
2018-12-15T01:30:35.007Z,35.80
2018-12-15T01:32:10.033Z,31.20
2018-12-15T01:33:45.050Z,32.00
2018-12-15T01:35:20.163Z,31.85
2018-12-15T01:36:55.144Z,33.73
2018-12-15T01:38:30.175Z,32.15
2018-12-15T01:40:05.760Z,34.20
2018-12-15T01:41:40.919Z,30.15
2018-12-15T01:43:16.091Z,29.48
2018-12-15T01:44:51.113Z,38.75
2018-12-15T01:46:26.141Z,32.03
2018-12-15T01:48:01.213Z,29.75
2018-12-15T01:49:36.300Z,29.70
2018-12-15T01:51:11.333Z,32.83
2018-12-15T01:52:46.405Z,28.98
2018-12-15T01:54:21.505Z,32.85
2018-12-15T01:55:56.552Z,29.70
2018-12-15T01:57:31.589Z,32.65
2018-12-15T01:59:06.752Z,28.60
2018-12-15T02:00:41.901Z,26.57
2018-12-15T02:02:16.993Z,30.77
2018-12-15T02:03:52.101Z,30.45
2018-12-15T02:05:27.393Z,28.73
2018-12-15T02:07:02.378Z,28.25
2018-12-15T02:08:37.409Z,25.45
2018-12-15T02:10:13.100Z,27.05
2018-12-15T02:11:48.137Z,26.85
2018-12-15T02:13:23.183Z,29.15
2018-12-15T02:14:58.213Z,28.55
2018-12-15T02:16:33.731Z,26.57
2018-12-15T02:18:08.723Z,24.12
2018-12-15T02:19:43.825Z,23.98
2018-12-15T02:21:19.275Z,29.27
2018-12-15T02:22:54.337Z,27.67
2018-12-15T02:24:29.341Z,26.93
2018-12-15T02:26:04.667Z,28.35
2018-12-15T02:27:39.612Z,26.50
2018-12-15T02:29:16.831Z,27.77
2018-12-15T02:30:52.013Z,26.30
2018-12-15T02:32:26.973Z,27.00
2018-12-15T02:34:30.696Z,27.60
2018-12-15T02:36:05.730Z,27.58
2018-12-15T02:37:40.715Z,28.80
2018-12-15T02:39:16.200Z,26.45
2018-12-15T02:40:51.171Z,26.62
2018-12-15T02:42:26.136Z,23.98
2018-12-15T02:44:01.224Z,29.60
2018-12-15T02:45:36.521Z,27.32
2018-12-15T02:47:11.521Z,23.25
2018-12-15T02:48:46.604Z,27.67
2018-12-15T02:50:21.674Z,28.30
2018-12-15T02:51:56.666Z,25.20
2018-12-15T02:53:39.701Z,25.90
2018-12-15T02:55:14.736Z,25.88
2018-12-15T02:56:49.716Z,26.30
2018-12-15T02:58:25.060Z,30.40
2018-12-15T03:00:00.092Z,24.67
2018-12-15T03:01:35.217Z,24.55
2018-12-15T03:03:10.273Z,26.93
2018-12-15T03:04:45.374Z,26.82
2018-12-15T03:06:20.400Z,24.75
2018-12-15T03:07:55.444Z,26.27
2018-12-15T03:09:30.432Z,25.60
2018-12-15T03:11:05.874Z,26.85
2018-12-15T03:12:40.862Z,26.15
2018-12-15T03:14:15.825Z,25.45
2018-12-15T03:15:50.787Z,26.70
2018-12-15T03:17:26.267Z,25.05
2018-12-15T03:19:12.778Z,26.95
2018-12-15T03:21:00.516Z,28.55
2018-12-15T03:22:35.529Z,25.77
2018-12-15T03:24:10.513Z,28.02
2018-12-15T03:25:45.473Z,24.43
2018-12-15T03:27:26.960Z,24.80
2018-12-15T03:29:02.394Z,28.23
2018-12-15T03:30:37.417Z,28.77
2018-12-15T03:32:12.399Z,26.48
2018-12-15T03:33:54.932Z,26.07
2018-12-15T03:35:29.999Z,23.52
2018-12-15T03:37:05.049Z,25.55
2018-12-15T03:38:40.061Z,24.90
2018-12-15T03:40:16.409Z,25.48
2018-12-15T03:41:51.753Z,27.95
2018-12-15T03:43:33.169Z,27.62
2018-12-15T03:45:08.452Z,29.42
2018-12-15T03:46:43.476Z,26.62
2018-12-15T03:48:18.464Z,26.75
2018-12-15T03:49:54.448Z,29.02
2018-12-15T03:51:30.524Z,27.30
2018-12-15T03:53:05.531Z,25.27
2018-12-15T03:54:40.657Z,28.40
2018-12-15T03:56:15.622Z,26.60
2018-12-15T03:57:50.571Z,30.17
2018-12-15T03:59:25.760Z,26.73
2018-12-15T04:01:00.922Z,29.15
2018-12-15T04:02:35.884Z,27.67
2018-12-15T04:04:11.233Z,26.42
2018-12-15T04:05:46.247Z,31.60
2018-12-15T04:07:21.229Z,32.25
2018-12-15T04:11:55.148Z,29.80
2018-12-15T04:13:30.239Z,30.00
2018-12-15T04:15:06.705Z,30.57
2018-12-15T04:16:41.664Z,31.65
2018-12-15T04:18:16.671Z,28.25
2018-12-15T04:19:51.694Z,30.72
2018-12-15T04:21:26.924Z,31.10
2018-12-15T04:23:01.944Z,30.15
2018-12-15T04:24:36.946Z,29.95
2018-12-15T04:26:12.021Z,31.93
2018-12-15T04:27:47.017Z,30.43
2018-12-15T04:29:22.057Z,28.67
2018-12-15T04:30:57.107Z,32.50
2018-12-15T04:32:32.225Z,31.02
2018-12-15T04:34:07.229Z,29.30
2018-12-15T04:35:42.278Z,30.10
2018-12-15T04:37:17.358Z,30.30
2018-12-15T04:38:52.369Z,29.18
2018-12-15T04:40:27.637Z,29.12
2018-12-15T04:42:10.112Z,30.30
2018-12-15T04:43:45.675Z,31.30
2018-12-15T04:45:20.686Z,30.65
2018-12-15T04:46:59.927Z,35.05
2018-12-15T04:48:35.046Z,31.35
2018-12-15T04:50:10.524Z,30.50
2018-12-15T04:51:47.908Z,33.53
2018-12-15T04:53:27.822Z,32.85
2018-12-15T04:55:06.842Z,30.05
2018-12-15T04:56:41.983Z,30.12
2018-12-15T04:58:17.037Z,33.95
2018-12-15T04:59:52.124Z,30.50
2018-12-15T05:01:34.707Z,32.42
2018-12-15T05:03:19.585Z,30.10
2018-12-15T05:05:03.110Z,33.85
2018-12-15T05:06:38.165Z,32.53
2018-12-15T05:08:13.670Z,31.82
2018-12-15T05:09:50.624Z,32.33
2018-12-15T05:12:29.032Z,30.10
2018-12-15T05:14:04.108Z,31.77
2018-12-15T05:15:39.110Z,29.87
2018-12-15T05:17:14.172Z,31.30
2018-12-15T05:18:49.201Z,28.55
2018-12-15T05:20:24.285Z,29.82
2018-12-15T05:23:42.632Z,32.80
2018-12-15T05:25:17.689Z,32.42
2018-12-15T05:26:53.081Z,34.73
2018-12-15T05:28:28.110Z,32.73
2018-12-15T05:30:03.811Z,32.83
2018-12-15T05:31:38.910Z,32.85
2018-12-15T05:33:14.000Z,33.30
2018-12-15T05:34:49.317Z,32.65
2018-12-15T05:36:24.402Z,32.33
2018-12-15T05:37:59.509Z,35.10
2018-12-15T05:39:34.518Z,35.40
2018-12-15T05:41:09.672Z,33.38
2018-12-15T05:42:44.727Z,33.00
2018-12-15T05:44:19.808Z,34.27
2018-12-15T05:45:54.890Z,31.15
2018-12-15T05:47:29.917Z,33.78
2018-12-15T05:49:05.002Z,37.48
2018-12-15T05:50:40.150Z,35.08
2018-12-15T05:52:16.189Z,40.43
2018-12-15T05:53:51.221Z,39.33
2018-12-15T05:55:26.304Z,35.43
2018-12-15T05:57:01.376Z,40.40
2018-12-15T05:58:36.566Z,39.00
2018-12-15T06:00:11.865Z,38.85
2018-12-15T06:01:47.159Z,39.78
2018-12-15T06:03:22.211Z,41.68
2018-12-15T06:04:57.469Z,40.40
2018-12-15T06:06:32.488Z,39.85
2018-12-15T06:08:07.901Z,39.90
2018-12-15T06:09:42.932Z,42.08
2018-12-15T06:11:17.969Z,45.08
2018-12-15T06:12:53.001Z,41.48
2018-12-15T06:14:28.069Z,42.80
2018-12-15T06:16:03.123Z,43.65
2018-12-15T06:17:38.248Z,42.93
2018-12-15T06:19:13.301Z,46.83
2018-12-15T06:20:48.377Z,39.65
2018-12-15T06:22:23.401Z,41.13
2018-12-15T06:23:58.796Z,44.85
2018-12-15T06:25:33.820Z,44.50
2018-12-15T06:27:08.898Z,44.48
2018-12-15T06:28:43.940Z,41.73
2018-12-15T06:30:19.028Z,41.98
2018-12-15T06:31:54.040Z,42.85
2018-12-15T06:33:29.194Z,45.15
2018-12-15T06:35:04.665Z,39.55
2018-12-15T06:36:39.765Z,43.65
2018-12-15T06:38:15.185Z,42.78
2018-12-15T06:39:50.212Z,45.25
2018-12-15T06:41:25.216Z,42.55
2018-12-15T06:43:00.156Z,43.83
2018-12-15T06:44:35.107Z,40.70
2018-12-15T06:46:10.099Z,44.98
2018-12-15T06:47:45.020Z,47.05
2018-12-15T06:49:20.187Z,43.60
2018-12-15T06:50:55.136Z,43.85
2018-12-15T06:52:30.055Z,41.90
2018-12-15T06:54:05.029Z,40.90
2018-12-15T06:55:40.352Z,42.30
2018-12-15T06:57:15.243Z,45.25
2018-12-15T06:58:50.267Z,47.73
2018-12-15T07:00:25.244Z,44.53
2018-12-15T07:02:00.567Z,43.52
2018-12-15T07:03:35.516Z,45.03
2018-12-15T07:05:10.515Z,43.33
2018-12-15T07:06:45.439Z,43.05
2018-12-15T07:08:20.647Z,40.83
2018-12-15T07:09:55.565Z,43.95
2018-12-15T07:11:30.524Z,44.70
2018-12-15T07:13:05.611Z,44.65
2018-12-15T07:14:40.606Z,42.35
2018-12-15T07:16:15.556Z,42.33
2018-12-15T07:17:50.432Z,44.88
2018-12-15T07:19:25.350Z,41.33
2018-12-15T07:21:00.590Z,42.65
2018-12-15T07:22:35.517Z,38.50
2018-12-15T07:24:10.424Z,44.73
2018-12-15T07:25:45.527Z,45.55
2018-12-15T07:27:20.495Z,42.17
2018-12-15T07:28:55.442Z,42.43
2018-12-15T07:30:30.591Z,45.88
2018-12-15T07:32:05.500Z,45.95
2018-12-15T07:33:40.469Z,42.62
2018-12-15T07:35:15.381Z,45.05
2018-12-15T07:36:50.311Z,44.80
2018-12-15T07:38:25.285Z,48.38
2018-12-15T07:40:00.195Z,47.78
2018-12-15T07:41:35.134Z,47.35
2018-12-15T07:43:10.124Z,47.58
2018-12-15T07:44:45.099Z,48.78
2018-12-15T07:46:20.023Z,54.90
2018-12-15T07:47:54.964Z,47.33
2018-12-15T07:49:29.872Z,46.98
2018-12-15T07:51:04.937Z,45.35
2018-12-15T07:52:40.080Z,48.02
2018-12-15T07:54:15.137Z,48.38
2018-12-15T07:55:50.048Z,57.23
2018-12-15T07:57:25.203Z,60.48
2018-12-15T07:59:00.112Z,75.40
2018-12-15T08:00:35.098Z,76.40
2018-12-15T08:02:10.044Z,62.85
2018-12-15T08:03:45.027Z,55.03
2018-12-15T08:05:19.952Z,45.85
2018-12-15T08:06:54.941Z,45.12
2018-12-15T08:08:29.892Z,49.20
2018-12-15T08:10:06.332Z,52.27
2018-12-15T08:11:46.411Z,46.80
2018-12-15T08:13:27.085Z,48.13
2018-12-15T08:15:02.088Z,49.73
2018-12-15T08:16:36.991Z,44.48
2018-12-15T08:18:12.000Z,52.00
2018-12-15T08:19:46.957Z,48.83
2018-12-15T08:21:21.864Z,50.95
2018-12-15T08:22:56.939Z,56.48
2018-12-15T08:24:31.947Z,49.50
2018-12-15T08:26:06.835Z,51.45
2018-12-15T08:27:41.767Z,47.35
2018-12-15T08:29:16.734Z,48.92
2018-12-15T08:30:51.634Z,46.55
2018-12-15T08:32:33.231Z,47.25
2018-12-15T08:34:08.803Z,52.45
2018-12-15T08:35:43.779Z,49.10
2018-12-15T08:37:18.725Z,52.85
2018-12-15T08:38:53.689Z,47.17
2018-12-15T08:40:28.652Z,52.20
2018-12-15T08:42:03.761Z,54.80
2018-12-15T08:43:38.699Z,50.83
2018-12-15T08:45:13.629Z,51.33
2018-12-15T08:46:48.588Z,49.75
2018-12-15T08:48:23.508Z,55.78
2018-12-15T08:49:58.425Z,53.23
2018-12-15T08:51:33.767Z,49.18
2018-12-15T08:53:08.723Z,52.13
2018-12-15T08:54:43.691Z,49.98
2018-12-15T08:56:18.641Z,49.00
2018-12-15T08:57:53.832Z,50.20
2018-12-15T08:59:28.763Z,48.85
2018-12-15T09:01:03.844Z,48.10
2018-12-15T09:02:38.839Z,48.55
2018-12-15T09:04:13.887Z,44.95
2018-12-15T09:05:48.806Z,47.60
2018-12-15T09:07:23.721Z,51.60
2018-12-15T09:08:58.673Z,53.02
2018-12-15T09:10:33.813Z,49.08
2018-12-15T09:12:08.757Z,47.75
2018-12-15T09:13:43.757Z,51.63
2018-12-15T09:15:18.692Z,51.48
2018-12-15T09:16:54.013Z,51.55
2018-12-15T09:18:28.905Z,53.10
2018-12-15T09:20:03.997Z,46.00
2018-12-15T09:21:38.994Z,47.20
2018-12-15T09:23:13.948Z,49.08
2018-12-15T09:24:48.844Z,55.05
2018-12-15T09:26:23.760Z,51.42
2018-12-15T09:27:58.661Z,51.65
2018-12-15T09:29:33.621Z,50.15
2018-12-15T09:31:08.600Z,47.90
2018-12-15T09:32:43.559Z,50.73
2018-12-15T09:34:18.481Z,52.03
2018-12-15T09:35:53.431Z,50.95
2018-12-15T09:37:28.377Z,53.83
2018-12-15T09:39:03.378Z,53.98
2018-12-15T09:40:38.583Z,55.12
2018-12-15T09:42:13.652Z,52.55
2018-12-15T09:43:48.632Z,53.58
2018-12-15T09:45:23.581Z,49.83
2018-12-15T09:46:58.484Z,54.38
2018-12-15T09:48:33.443Z,54.55
2018-12-15T09:50:08.572Z,54.13
2018-12-15T09:51:43.530Z,53.80
2018-12-15T09:53:18.504Z,52.75
2018-12-15T09:54:53.526Z,52.98
2018-12-15T09:56:28.476Z,50.95
2018-12-15T09:58:03.470Z,55.80
2018-12-15T09:59:38.445Z,51.65
2018-12-15T10:01:13.392Z,50.33
2018-12-15T10:02:48.480Z,53.05
2018-12-15T10:04:23.636Z,53.17
2018-12-15T10:05:58.556Z,50.38
2018-12-15T10:07:33.489Z,51.63
2018-12-15T10:09:08.496Z,53.30
2018-12-15T10:10:43.557Z,54.83
2018-12-15T10:12:18.482Z,56.98
2018-12-15T10:13:53.424Z,55.23
2018-12-15T10:15:28.356Z,53.42
2018-12-15T10:17:03.659Z,58.25
2018-12-15T10:18:45.098Z,57.17
2018-12-15T10:20:22.992Z,62.25
2018-12-15T10:21:57.958Z,58.55
2018-12-15T10:23:32.935Z,55.33
2018-12-15T10:25:07.887Z,61.65
2018-12-15T10:26:43.176Z,52.75
2018-12-15T10:28:19.173Z,55.50
2018-12-15T10:29:59.245Z,63.33
2018-12-15T10:31:39.420Z,60.25
2018-12-15T10:33:21.812Z,57.75
2018-12-15T10:34:56.744Z,61.05
2018-12-15T10:36:31.696Z,57.30
2018-12-15T10:38:06.652Z,62.80
2018-12-15T10:39:41.751Z,61.77
2018-12-15T10:41:16.792Z,64.97
2018-12-15T10:42:58.436Z,59.63
2018-12-15T10:44:33.414Z,61.23
2018-12-15T10:46:08.347Z,58.63
2018-12-15T10:47:43.264Z,57.17
2018-12-15T10:49:18.309Z,57.27
2018-12-15T10:50:53.216Z,61.95
2018-12-15T10:52:28.349Z,57.95
2018-12-15T10:54:03.308Z,64.80
2018-12-15T10:55:38.275Z,58.10
2018-12-15T10:57:13.234Z,56.55
2018-12-15T10:58:48.232Z,54.18
2018-12-15T11:00:29.268Z,52.50
2018-12-15T11:02:04.369Z,54.77
2018-12-15T11:03:39.349Z,56.80
2018-12-15T11:05:14.372Z,55.83
2018-12-15T11:06:49.351Z,55.38
2018-12-15T11:08:24.268Z,52.98
2018-12-15T11:09:59.278Z,55.70
2018-12-15T11:11:34.218Z,56.55
2018-12-15T11:13:09.239Z,56.48
2018-12-15T11:14:50.806Z,59.35
2018-12-15T11:16:25.824Z,56.10
2018-12-15T11:18:00.803Z,53.68
2018-12-15T11:19:42.417Z,56.42
2018-12-15T11:21:17.380Z,53.20
2018-12-15T11:22:55.179Z,54.77
2018-12-15T11:24:30.138Z,54.60
2018-12-15T11:26:05.329Z,51.42
2018-12-15T11:27:40.238Z,53.50
2018-12-15T11:29:15.127Z,52.73
2018-12-15T11:30:51.199Z,53.60
2018-12-15T11:32:26.253Z,49.10
2018-12-15T11:34:01.249Z,57.50
2018-12-15T11:35:36.197Z,53.40
2018-12-15T11:37:13.979Z,53.98
2018-12-15T11:38:48.909Z,54.90
2018-12-15T11:40:23.896Z,50.58
2018-12-15T11:41:58.820Z,52.25
2018-12-15T11:43:33.787Z,51.05
2018-12-15T11:45:08.848Z,51.02
2018-12-15T11:46:43.815Z,51.37
2018-12-15T11:48:18.781Z,50.75
2018-12-15T11:49:53.758Z,49.63
2018-12-15T11:51:28.767Z,52.03
2018-12-15T11:53:03.756Z,55.28
2018-12-15T11:54:38.811Z,51.77
2018-12-15T11:56:15.853Z,53.28
2018-12-15T11:57:50.932Z,48.90
2018-12-15T11:59:25.877Z,48.75
2018-12-15T12:01:00.889Z,49.55
2018-12-15T12:02:35.811Z,54.90
2018-12-15T12:04:10.876Z,49.98
2018-12-15T12:05:45.836Z,50.52
2018-12-15T12:07:20.799Z,49.53
2018-12-15T12:08:55.730Z,51.15
2018-12-15T12:10:30.770Z,44.13
2018-12-15T12:12:12.258Z,52.13
2018-12-15T12:13:47.188Z,47.73
2018-12-15T12:15:22.193Z,50.17
2018-12-15T12:16:57.221Z,49.73
2018-12-15T12:18:32.207Z,48.65
2018-12-15T12:20:08.708Z,54.70
2018-12-15T12:21:43.700Z,51.02
2018-12-15T12:23:18.743Z,51.95
2018-12-15T12:24:53.729Z,57.13
2018-12-15T12:26:28.676Z,65.25
2018-12-15T12:28:03.755Z,51.33
2018-12-15T12:29:38.712Z,65.25
2018-12-15T12:31:13.709Z,105.70
2018-12-15T12:32:48.686Z,59.45
2018-12-15T12:34:30.222Z,51.37
2018-12-15T12:36:05.279Z,49.38
2018-12-15T12:37:40.226Z,47.90
2018-12-15T12:39:15.166Z,46.02
2018-12-15T12:40:50.083Z,50.25
2018-12-15T12:42:25.112Z,45.75
2018-12-15T12:44:00.157Z,51.28
2018-12-15T12:45:35.229Z,52.78
2018-12-15T12:47:10.289Z,53.95
2018-12-15T12:48:46.977Z,49.90
2018-12-15T12:50:29.833Z,49.27
2018-12-15T12:52:10.566Z,52.73
2018-12-15T12:53:49.286Z,54.03
2018-12-15T12:55:26.847Z,49.95
2018-12-15T12:57:06.324Z,54.05
2018-12-15T12:58:48.880Z,53.08
2018-12-15T13:02:57.796Z,57.67
2018-12-15T13:04:43.572Z,50.85
2018-12-15T13:06:24.151Z,56.68
2018-12-15T13:08:06.196Z,55.15
2018-12-15T13:09:43.832Z,53.92
2018-12-15T13:11:20.874Z,53.58
2018-12-15T13:12:56.472Z,52.85
2018-12-15T13:14:31.896Z,52.23
2018-12-15T13:16:08.029Z,56.02
2018-12-15T13:17:44.307Z,57.40
2018-12-15T13:19:19.839Z,56.42
2018-12-15T13:20:55.370Z,58.63
2018-12-15T13:22:31.549Z,58.30
2018-12-15T13:24:07.101Z,53.48
2018-12-15T13:25:44.890Z,53.08
2018-12-15T13:27:20.253Z,60.28
2018-12-15T13:28:55.852Z,52.95
2018-12-15T13:30:31.635Z,56.88
2018-12-15T13:32:08.362Z,57.58
2018-12-15T13:33:45.113Z,53.17
2018-12-15T13:35:24.422Z,53.80
2018-12-15T13:37:00.068Z,52.25
2018-12-15T13:38:35.796Z,52.53
2018-12-15T13:40:11.568Z,54.18
2018-12-15T13:41:46.943Z,51.18
2018-12-15T13:43:27.143Z,51.55
2018-12-15T13:45:14.437Z,50.58
2018-12-15T13:46:49.718Z,53.10
2018-12-15T13:48:24.985Z,50.73
2018-12-15T13:50:00.587Z,50.05
2018-12-15T13:51:39.822Z,49.08
2018-12-15T13:53:17.772Z,51.68
2018-12-15T13:54:53.951Z,53.15
2018-12-15T13:56:29.196Z,51.55
2018-12-15T13:58:04.603Z,57.93
2018-12-15T13:59:40.869Z,53.52
2018-12-15T14:01:20.350Z,51.02
2018-12-15T14:02:58.460Z,49.33
2018-12-15T14:04:36.896Z,51.80
2018-12-15T14:06:16.087Z,52.10
2018-12-15T14:07:53.178Z,55.35
2018-12-15T14:09:28.742Z,50.40
2018-12-15T14:12:56.433Z,51.20
2018-12-15T14:14:40.511Z,51.45
2018-12-15T14:29:06.244Z,49.53
2018-12-15T14:30:41.180Z,55.33
2018-12-15T14:32:16.236Z,53.50
2018-12-15T14:33:51.245Z,54.77
2018-12-15T14:35:26.322Z,55.67
2018-12-15T14:37:01.301Z,53.20
2018-12-15T14:38:36.375Z,58.17
2018-12-15T14:40:11.549Z,60.00
2018-12-15T14:41:46.680Z,52.10
2018-12-15T14:43:21.696Z,56.40
2018-12-15T14:44:56.700Z,57.95
2018-12-15T14:46:31.721Z,55.73
2018-12-15T14:48:06.833Z,57.33
2018-12-15T14:49:41.901Z,53.55
2018-12-15T14:51:16.939Z,55.17
2018-12-15T14:52:51.956Z,56.77
2018-12-15T14:54:27.065Z,54.25
2018-12-15T14:56:02.162Z,53.98
2018-12-15T14:57:37.287Z,57.17
2018-12-15T14:59:12.313Z,54.85
2018-12-15T15:00:47.340Z,62.48
2018-12-15T15:02:22.620Z,55.95
2018-12-15T15:03:57.588Z,55.55
2018-12-15T15:05:32.553Z,54.75
2018-12-15T15:07:07.976Z,53.35
2018-12-15T15:08:42.987Z,55.48
2018-12-15T15:10:18.037Z,55.05
2018-12-15T15:11:53.021Z,55.00
2018-12-15T15:13:34.311Z,55.38
2018-12-15T15:15:05.955Z,57.35
2018-12-15T15:16:53.768Z,59.38
2018-12-15T15:18:28.960Z,59.30
2018-12-15T15:20:04.490Z,55.92
2018-12-15T15:21:39.733Z,57.83
2018-12-15T15:23:14.671Z,54.23
2018-12-15T15:25:11.045Z,55.92
2018-12-15T15:27:02.878Z,56.40
2018-12-15T15:28:38.080Z,54.05
2018-12-15T15:30:13.545Z,55.50
2018-12-15T15:34:58.891Z,52.62
2018-12-15T15:51:49.967Z,56.45
2018-12-15T15:53:26.025Z,52.73
2018-12-15T15:55:01.024Z,58.70
2018-12-15T15:56:36.069Z,61.23
2018-12-15T15:58:11.189Z,56.77
2018-12-15T15:59:46.299Z,58.42
2018-12-15T16:01:21.398Z,58.33
2018-12-15T16:02:56.474Z,56.65
2018-12-15T16:04:31.568Z,53.90
2018-12-15T16:06:06.677Z,54.98
2018-12-15T16:07:41.721Z,54.67
2018-12-15T16:09:16.774Z,53.00
2018-12-15T16:10:51.874Z,55.65
2018-12-15T16:12:26.936Z,53.40
2018-12-15T16:14:01.964Z,52.78
2018-12-15T16:15:36.995Z,59.23
2018-12-15T16:17:12.134Z,53.63
2018-12-15T16:18:47.164Z,55.50
2018-12-15T16:20:22.400Z,56.55
2018-12-15T16:21:57.468Z,54.63
2018-12-15T16:23:32.698Z,51.00
2018-12-15T16:25:08.005Z,53.00
2018-12-15T16:26:43.117Z,54.98
2018-12-15T16:28:18.155Z,55.28
2018-12-15T16:29:53.265Z,55.30
2018-12-15T16:31:28.297Z,52.75
2018-12-15T16:33:03.378Z,50.88
2018-12-15T16:34:38.376Z,50.70
2018-12-15T16:36:13.492Z,50.80
2018-12-15T16:37:48.578Z,54.50
2018-12-15T16:39:23.696Z,49.63
2018-12-15T16:40:58.742Z,52.05
2018-12-15T16:42:33.870Z,50.70
2018-12-15T16:44:08.950Z,51.20
2018-12-15T16:45:44.039Z,54.70
2018-12-15T16:47:19.096Z,55.45
2018-12-15T16:48:54.222Z,51.95
2018-12-15T16:50:29.288Z,53.13
2018-12-15T16:52:04.376Z,53.90
2018-12-15T16:53:39.451Z,48.85
2018-12-15T16:55:16.296Z,53.98
2018-12-15T16:59:20.549Z,54.45
2018-12-15T17:02:52.243Z,57.08
2018-12-15T17:04:30.520Z,57.73
2018-12-15T17:06:09.195Z,56.55
2018-12-15T17:07:51.310Z,55.23
2018-12-15T17:09:27.894Z,53.63
2018-12-15T17:11:05.564Z,61.88
2018-12-15T17:17:35.117Z,57.30
2018-12-15T17:19:10.183Z,59.70
2018-12-15T17:20:45.276Z,55.70
2018-12-15T17:22:20.358Z,51.33
2018-12-15T17:23:55.376Z,55.25
2018-12-15T17:25:30.541Z,50.95
2018-12-15T17:27:24.755Z,56.77
2018-12-15T17:29:09.691Z,53.92
2018-12-15T17:30:44.755Z,51.50
2018-12-15T17:32:19.852Z,53.30
2018-12-15T17:33:54.864Z,56.48
2018-12-15T17:35:40.242Z,54.63
2018-12-15T17:37:31.632Z,52.40
2018-12-15T17:39:18.672Z,60.30
2018-12-15T17:41:03.019Z,53.70
2018-12-15T17:42:46.120Z,57.25
2018-12-15T17:44:31.097Z,55.67
2018-12-15T17:46:06.091Z,57.78
2018-12-15T17:47:47.516Z,62.55
2018-12-15T17:49:27.287Z,59.58
2018-12-15T17:51:05.169Z,54.20
2018-12-15T17:52:40.278Z,55.55
2018-12-15T17:54:15.297Z,54.25
2018-12-15T17:55:50.328Z,56.05
2018-12-15T17:57:32.158Z,57.93
2018-12-15T17:59:15.580Z,57.67
2018-12-15T18:00:52.908Z,58.40
2018-12-15T18:04:22.751Z,53.73
2018-12-15T18:05:57.736Z,54.27
2018-12-15T18:07:37.716Z,54.23
2018-12-15T18:09:22.151Z,53.98
2018-12-15T18:11:08.108Z,58.58
2018-12-15T18:12:43.349Z,56.08
2018-12-15T18:14:18.412Z,58.65
2018-12-15T18:15:57.984Z,53.40
2018-12-15T18:17:43.007Z,59.08
2018-12-15T18:19:27.775Z,54.73
2018-12-15T18:21:09.913Z,57.80
2018-12-15T18:22:44.239Z,59.20
2018-12-15T18:24:24.993Z,61.50
2018-12-15T18:26:00.245Z,57.30
2018-12-15T18:27:35.335Z,58.30
2018-12-15T18:29:10.279Z,57.80
2018-12-15T18:30:45.260Z,55.65
2018-12-15T18:32:20.228Z,62.15
2018-12-15T18:33:55.302Z,60.43
2018-12-15T18:35:30.286Z,55.75
2018-12-15T18:37:05.259Z,57.78
2018-12-15T18:38:40.239Z,57.60
2018-12-15T18:40:15.243Z,56.25
2018-12-15T18:41:50.199Z,57.85
2018-12-15T18:43:37.847Z,52.13
2018-12-15T18:45:20.051Z,54.20
2018-12-15T18:47:08.505Z,53.45
2018-12-15T18:48:51.664Z,56.75
2018-12-15T18:50:31.162Z,57.25
2018-12-15T18:52:17.992Z,54.90
2018-12-15T18:53:53.010Z,55.65
2018-12-15T18:55:28.034Z,54.85
2018-12-15T18:57:06.320Z,53.75
2018-12-15T18:58:41.378Z,56.65
2018-12-15T19:00:18.663Z,53.85
2018-12-15T19:01:59.101Z,51.25
2018-12-15T19:03:39.924Z,57.70
2018-12-15T19:05:17.869Z,55.73
2018-12-15T19:06:56.580Z,61.45
2018-12-15T19:08:35.823Z,57.20
2018-12-15T19:10:14.559Z,60.52
2018-12-15T19:11:55.825Z,58.35
2018-12-15T19:13:35.573Z,61.95
2018-12-15T19:15:29.087Z,60.55
2018-12-15T19:19:14.186Z,57.25
2018-12-15T19:22:51.155Z,61.55
2018-12-15T19:24:38.319Z,65.05
2018-12-15T19:26:28.215Z,62.53
2018-12-15T19:31:00.666Z,56.88
